Aviation Digital Data Service (ADDS)

Output produced by TAFs form (0710 UTC 20 July 2018)
found at http://www.aviationweather.gov/adds/tafs/
 
METAR text: ZYTX 200700Z 20004MPS 170V240 9999 FEW040 32/22 Q1005 NOSIG
Conditions at: ZYTX (SHENYANG/TAOKIAN, CN) observed 0700 UTC 20 July 2018
Temperature: 32.0°C (90°F)
Dewpoint: 22.0°C (72°F) [RH = 56%]
Pressure (altimeter): 29.68 inches Hg (1005.0 mb)
Winds: from the SSW (200 degrees) at 9 MPH (8 knots; 4.2 m/s)
Visibility: 6 or more miles (10+ km)
Ceiling: at least 12,000 feet AGL
Clouds: few clouds at 4000 feet AGL
Weather: no significant weather observed at this time

Forecast for: ZYTX (SHENYANG/TAOKIAN, CN)
Text: TAF ZYTX 200108Z 2006/2106 20004MPS CAVOK TX32/2006Z TN24/2021Z
Forecast period: 0600 UTC 20 July 2018 to 0600 UTC 21 July 2018
Forecast type: FROM: standard forecast or significant change
Winds: from the SSW (200 degrees) at 9 MPH (8 knots; 4.2 m/s)
Visibility: 6 or more miles (10+ km)
Clouds: not forecast
Weather: no significant weather forecast for this period